createdAt,value
2018-02-17T00:00:53.113Z,16.65
2018-02-17T00:03:21.970Z,12.65
2018-02-17T00:05:50.490Z,13.38
2018-02-17T00:08:19.107Z,18.45
2018-02-17T00:10:48.326Z,18.17
2018-02-17T00:13:16.812Z,17.42
2018-02-17T00:15:45.291Z,12.65
2018-02-17T00:18:13.856Z,17.55
2018-02-17T00:20:51.488Z,11.43
2018-02-17T00:23:20.302Z,17.70
2018-02-17T00:25:48.897Z,18.10
2018-02-17T00:28:17.534Z,13.50
2018-02-17T00:30:47.571Z,17.15
2018-02-17T00:33:16.123Z,24.45
2018-02-17T00:35:45.297Z,15.30
2018-02-17T00:38:14.067Z,16.15
2018-02-17T00:40:42.656Z,12.32
2018-02-17T00:43:11.100Z,18.00
2018-02-17T00:45:39.492Z,29.75
2018-02-17T00:48:07.968Z,21.37
2018-02-17T00:50:37.112Z,25.73
2018-02-17T00:53:05.489Z,17.67
2018-02-17T00:55:33.940Z,18.48
2018-02-17T00:58:02.343Z,16.12
2018-02-17T01:00:30.780Z,19.83
2018-02-17T01:02:59.941Z,14.13
2018-02-17T01:05:28.405Z,21.00
2018-02-17T01:07:56.804Z,18.05
2018-02-17T01:10:25.254Z,23.15
2018-02-17T01:12:54.785Z,19.85
2018-02-17T01:15:23.212Z,20.10
2018-02-17T01:17:53.190Z,16.00
2018-02-17T01:20:21.644Z,23.25
2018-02-17T01:22:51.583Z,18.45
2018-02-17T01:25:20.037Z,13.55
2018-02-17T01:27:50.789Z,21.92
2018-02-17T01:30:19.350Z,17.45
2018-02-17T01:32:50.123Z,17.83
2018-02-17T01:35:18.500Z,17.08
2018-02-17T01:37:48.834Z,17.48
2018-02-17T01:40:17.223Z,23.62
2018-02-17T01:42:47.340Z,24.30
2018-02-17T01:45:15.762Z,26.52
2018-02-17T01:47:46.317Z,22.23
2018-02-17T01:50:33.353Z,19.00
2018-02-17T01:53:05.947Z,20.15
2018-02-17T01:55:34.326Z,23.40
2018-02-17T01:58:03.991Z,18.55
2018-02-17T02:00:34.763Z,18.37
2018-02-17T02:03:03.189Z,19.60
2018-02-17T02:05:31.624Z,19.90
2018-02-17T02:08:00.026Z,16.37
2018-02-17T02:10:28.405Z,17.85
2018-02-17T02:12:56.826Z,21.42
2018-02-17T02:15:25.236Z,17.35
2018-02-17T02:17:53.639Z,15.10
2018-02-17T02:20:22.036Z,17.30
2018-02-17T02:22:50.595Z,23.20
2018-02-17T02:25:18.979Z,17.42
2018-02-17T02:27:47.376Z,14.77
2018-02-17T02:30:15.765Z,18.55
2018-02-17T02:32:44.347Z,17.73
2018-02-17T02:35:12.777Z,21.90
2018-02-17T02:37:41.944Z,21.83
2018-02-17T02:40:11.131Z,18.55
2018-02-17T02:42:39.518Z,18.15
2018-02-17T02:45:08.136Z,19.83
2018-02-17T02:47:37.291Z,22.05
2018-02-17T02:50:05.697Z,14.25
2018-02-17T02:52:34.121Z,20.02
2018-02-17T02:55:02.698Z,16.65
2018-02-17T02:57:31.097Z,13.38
2018-02-17T02:59:59.496Z,11.55
2018-02-17T03:02:27.979Z,22.62
2018-02-17T03:04:56.460Z,14.85
2018-02-17T03:07:24.843Z,18.83
2018-02-17T03:09:53.275Z,16.23
2018-02-17T03:12:21.715Z,18.55
2018-02-17T03:14:50.180Z,17.08
2018-02-17T03:17:18.593Z,19.25
2018-02-17T03:19:46.984Z,12.85
2018-02-17T03:22:15.413Z,17.15
2018-02-17T03:24:43.819Z,18.67
2018-02-17T03:27:12.966Z,15.80
2018-02-17T03:29:41.366Z,23.05
2018-02-17T03:32:09.957Z,19.20
2018-02-17T03:34:38.388Z,24.45
2018-02-17T03:37:06.763Z,16.80
2018-02-17T03:39:35.931Z,17.55
2018-02-17T03:42:04.366Z,15.10
2018-02-17T03:44:33.538Z,25.33
2018-02-17T03:47:02.027Z,15.70
2018-02-17T03:49:31.181Z,17.85
2018-02-17T03:51:59.591Z,21.25
2018-02-17T03:54:27.991Z,17.60
2018-02-17T03:56:57.140Z,24.48
2018-02-17T03:59:25.545Z,16.20
2018-02-17T04:01:54.052Z,23.33
2018-02-17T04:04:23.883Z,17.27
2018-02-17T04:06:53.327Z,19.33
2018-02-17T04:09:21.724Z,22.48
2018-02-17T04:11:50.122Z,23.48
2018-02-17T04:14:18.530Z,29.08
2018-02-17T04:16:46.944Z,16.85
2018-02-17T04:19:15.378Z,16.60
2018-02-17T04:21:44.616Z,17.30
2018-02-17T04:24:13.034Z,37.92
2018-02-17T04:26:41.426Z,32.22
2018-02-17T04:29:09.913Z,53.20
2018-02-17T04:31:38.320Z,32.05
2018-02-17T04:34:06.820Z,38.88
2018-02-17T04:36:35.203Z,50.30
2018-02-17T04:39:03.636Z,39.78
2018-02-17T04:41:33.274Z,34.13
2018-02-17T04:44:02.595Z,40.28
2018-02-17T04:46:36.512Z,29.52
2018-02-17T04:49:05.213Z,28.08
2018-02-17T04:51:35.538Z,42.22
2018-02-17T04:54:06.921Z,45.00
2018-02-17T04:56:47.087Z,48.85
2018-02-17T04:59:20.460Z,57.35
2018-02-17T05:04:50.263Z,49.80
2018-02-17T05:07:31.294Z,48.83
2018-02-17T05:10:00.452Z,54.15
2018-02-17T05:12:28.826Z,54.10
2018-02-17T05:15:08.207Z,44.38
2018-02-17T05:17:42.826Z,44.92
2018-02-17T05:20:22.890Z,40.30
2018-02-17T05:25:54.788Z,27.87
2018-02-17T05:31:24.454Z,53.95
2018-02-17T05:33:58.454Z,58.72
2018-02-17T05:39:37.698Z,44.80
2018-02-17T05:42:10.343Z,37.83
2018-02-17T05:44:45.434Z,46.72
2018-02-17T05:47:15.845Z,37.63
2018-02-17T05:49:47.570Z,49.38
2018-02-17T05:52:16.748Z,50.50
2018-02-17T05:54:46.318Z,30.27
2018-02-17T05:57:14.815Z,29.67
2018-02-17T05:59:43.227Z,22.83
2018-02-17T06:02:11.609Z,21.83
2018-02-17T06:04:40.167Z,17.08
2018-02-17T06:07:08.571Z,17.73
2018-02-17T06:09:36.990Z,14.43
2018-02-17T06:12:07.842Z,15.82
2018-02-17T06:14:37.019Z,20.30
2018-02-17T06:17:05.483Z,25.62
2018-02-17T06:19:35.467Z,22.95
2018-02-17T06:22:03.889Z,19.92
2018-02-17T06:24:32.282Z,21.55
2018-02-17T06:27:00.821Z,22.73
2018-02-17T06:29:29.913Z,27.13
2018-02-17T06:31:58.321Z,16.00
2018-02-17T06:34:26.712Z,25.25
2018-02-17T06:36:55.907Z,18.35
2018-02-17T06:39:25.285Z,14.65
2018-02-17T06:41:53.703Z,20.40
2018-02-17T06:44:22.863Z,18.55
2018-02-17T06:46:51.396Z,28.50
2018-02-17T06:49:19.817Z,18.98
2018-02-17T06:51:48.213Z,16.17
2018-02-17T06:54:16.628Z,22.75
2018-02-17T06:56:45.812Z,15.00
2018-02-17T06:59:14.195Z,26.50
2018-02-17T07:01:43.355Z,23.90
2018-02-17T07:04:11.817Z,20.17
2018-02-17T07:06:40.262Z,25.70
2018-02-17T07:09:09.487Z,20.05
2018-02-17T07:11:38.766Z,23.98
2018-02-17T07:14:07.931Z,21.42
2018-02-17T07:16:36.371Z,22.98
2018-02-17T07:19:04.800Z,20.50
2018-02-17T07:21:33.208Z,20.77
2018-02-17T07:24:02.375Z,15.52
2018-02-17T07:26:30.838Z,18.02
2018-02-17T07:28:59.239Z,20.90
2018-02-17T07:31:27.699Z,19.40
2018-02-17T07:33:56.099Z,27.42
2018-02-17T07:36:24.554Z,23.55
2018-02-17T07:38:53.143Z,18.67
2018-02-17T07:41:21.571Z,16.52
2018-02-17T07:43:50.835Z,21.45
2018-02-17T07:46:19.237Z,34.38
2018-02-17T07:48:47.643Z,41.90
2018-02-17T07:51:16.821Z,35.50
2018-02-17T07:53:45.217Z,35.47
2018-02-17T07:56:14.372Z,32.38
2018-02-17T07:58:42.795Z,31.25
2018-02-17T08:01:11.208Z,24.87
2018-02-17T08:03:39.833Z,29.58
2018-02-17T08:06:09.010Z,27.00
2018-02-17T08:08:37.432Z,30.12
2018-02-17T08:11:07.179Z,31.80
2018-02-17T08:13:35.577Z,27.85
2018-02-17T08:16:05.500Z,26.95
2018-02-17T08:18:35.439Z,31.70
2018-02-17T08:21:03.853Z,24.92
2018-02-17T08:23:33.031Z,22.70
2018-02-17T08:26:02.391Z,25.62
2018-02-17T08:28:30.993Z,29.45
2018-02-17T08:30:59.372Z,27.05
2018-02-17T08:33:27.791Z,30.55
2018-02-17T08:35:56.964Z,31.45
2018-02-17T08:38:25.368Z,31.05
2018-02-17T08:40:54.516Z,25.95
2018-02-17T08:43:22.965Z,27.98
2018-02-17T08:45:51.481Z,30.52
2018-02-17T08:48:19.951Z,26.00
2018-02-17T08:50:48.367Z,21.60
2018-02-17T08:53:16.813Z,23.75
2018-02-17T08:55:45.227Z,28.90
2018-02-17T08:58:13.840Z,27.37
2018-02-17T09:00:42.263Z,19.45
2018-02-17T09:03:10.690Z,19.23
2018-02-17T09:05:39.125Z,15.18
2018-02-17T09:08:07.554Z,14.65
2018-02-17T09:10:56.682Z,13.77
2018-02-17T09:13:25.079Z,17.48
2018-02-17T09:15:53.464Z,13.18
2018-02-17T09:18:22.640Z,15.15
2018-02-17T09:20:51.048Z,12.20
2018-02-17T09:23:19.448Z,18.58
2018-02-17T09:25:47.820Z,15.00
2018-02-17T09:28:16.211Z,14.85
2018-02-17T09:30:44.632Z,11.93
2018-02-17T09:33:13.026Z,11.18
2018-02-17T09:35:41.401Z,19.05
2018-02-17T09:38:09.856Z,11.60
2018-02-17T09:40:39.216Z,11.77
2018-02-17T09:43:07.602Z,13.73
2018-02-17T09:45:37.680Z,12.63
2018-02-17T09:48:06.500Z,17.40
2018-02-17T09:50:34.917Z,13.70
2018-02-17T09:53:04.247Z,17.23
2018-02-17T09:55:32.784Z,17.75
2018-02-17T09:58:01.159Z,13.15
2018-02-17T10:00:29.584Z,22.90
2018-02-17T10:02:58.768Z,16.02
2018-02-17T10:05:27.190Z,13.70
2018-02-17T10:07:55.612Z,17.90
2018-02-17T10:10:24.023Z,11.85
2018-02-17T10:12:53.207Z,17.80
2018-02-17T10:15:22.388Z,11.15
2018-02-17T10:17:50.880Z,14.70
2018-02-17T10:20:19.307Z,10.20
2018-02-17T10:22:47.760Z,18.10
2018-02-17T10:25:17.883Z,12.75
2018-02-17T10:27:46.288Z,10.13
2018-02-17T10:30:14.744Z,15.30
2018-02-17T10:32:45.648Z,13.45
2018-02-17T10:35:14.021Z,14.40
2018-02-17T10:37:44.258Z,13.20
2018-02-17T10:40:12.651Z,20.80
2018-02-17T10:42:42.535Z,17.10
2018-02-17T10:45:11.354Z,19.05
2018-02-17T10:47:42.104Z,17.73
2018-02-17T10:50:11.495Z,13.40
2018-02-17T10:52:42.280Z,12.48
2018-02-17T10:55:11.005Z,26.15
2018-02-17T10:57:41.496Z,15.68
2018-02-17T11:00:10.024Z,12.95
2018-02-17T11:02:40.466Z,17.08
2018-02-17T11:05:11.119Z,14.82
2018-02-17T11:07:41.355Z,12.45
2018-02-17T11:10:10.536Z,17.33
2018-02-17T11:12:40.826Z,11.12
2018-02-17T11:15:09.824Z,12.15
2018-02-17T11:17:39.342Z,13.10
2018-02-17T11:20:07.731Z,15.43
2018-02-17T11:22:36.150Z,14.87
2018-02-17T11:25:04.608Z,16.45
2018-02-17T11:27:33.151Z,12.15
2018-02-17T11:30:01.581Z,11.63
2018-02-17T11:32:30.035Z,14.77
2018-02-17T11:34:58.459Z,12.97
2018-02-17T11:37:26.937Z,11.87
2018-02-17T11:39:55.436Z,10.97
2018-02-17T11:42:23.887Z,15.70
2018-02-17T11:44:52.330Z,14.67
2018-02-17T11:47:21.557Z,9.93
2018-02-17T11:49:49.989Z,12.73
2018-02-17T11:52:18.519Z,17.17
2018-02-17T11:54:46.930Z,12.80
2018-02-17T11:57:15.395Z,12.97
2018-02-17T11:59:43.786Z,15.20
2018-02-17T12:02:12.276Z,9.97
2018-02-17T12:04:40.745Z,12.60
2018-02-17T12:07:09.132Z,14.80
2018-02-17T12:09:37.545Z,14.23
2018-02-17T12:12:05.987Z,9.40
2018-02-17T12:14:34.368Z,13.83
2018-02-17T12:17:03.570Z,16.07
2018-02-17T12:19:31.999Z,12.27
2018-02-17T12:22:00.537Z,12.87
2018-02-17T12:24:28.964Z,12.20
2018-02-17T12:26:57.353Z,10.90
2018-02-17T12:29:25.786Z,15.10
2018-02-17T12:31:55.151Z,17.93
2018-02-17T12:34:26.048Z,14.57
2018-02-17T12:36:54.497Z,14.37
2018-02-17T12:39:22.910Z,14.80
2018-02-17T12:41:51.371Z,11.30
2018-02-17T12:44:19.785Z,15.13
2018-02-17T12:46:48.183Z,14.00
2018-02-17T12:49:16.579Z,8.50
2018-02-17T12:51:45.747Z,12.77
2018-02-17T12:54:14.208Z,17.77
2018-02-17T12:56:42.600Z,11.70
2018-02-17T12:59:11.012Z,14.40
2018-02-17T13:01:39.465Z,14.33
2018-02-17T13:04:07.907Z,11.83
2018-02-17T13:06:36.312Z,9.23
2018-02-17T13:09:04.683Z,10.00
2018-02-17T13:11:33.054Z,17.00
2018-02-17T13:14:01.435Z,13.37
2018-02-17T13:16:29.852Z,14.37
2018-02-17T13:18:59.650Z,13.20
2018-02-17T13:21:28.061Z,13.73
2018-02-17T13:23:58.140Z,14.73
2018-02-17T13:26:26.601Z,16.13
2018-02-17T13:28:57.154Z,12.80
2018-02-17T13:31:25.571Z,10.93
2018-02-17T13:33:55.969Z,13.83
2018-02-17T13:36:24.352Z,13.50
2018-02-17T13:38:54.087Z,10.20
2018-02-17T13:41:22.459Z,13.93
2018-02-17T13:43:52.486Z,14.57
2018-02-17T13:46:20.954Z,21.47
2018-02-17T13:48:50.864Z,13.57
2018-02-17T13:51:19.428Z,12.97
2018-02-17T13:53:48.127Z,14.43
2018-02-17T13:56:16.514Z,15.67
2018-02-17T13:58:56.231Z,8.80
2018-02-17T14:01:26.645Z,14.30
2018-02-17T14:03:59.906Z,11.37
2018-02-17T14:06:28.407Z,11.37
2018-02-17T14:08:59.056Z,13.30
2018-02-17T14:11:28.311Z,11.60
2018-02-17T14:13:58.431Z,21.07
2018-02-17T14:16:27.423Z,10.97
2018-02-17T14:18:58.760Z,9.30
2018-02-17T14:21:27.217Z,14.03
2018-02-17T14:23:58.179Z,11.93
2018-02-17T14:26:26.599Z,12.53
2018-02-17T14:28:55.879Z,14.67
2018-02-17T14:31:24.285Z,13.50
2018-02-17T14:33:52.873Z,15.83
2018-02-17T14:36:21.342Z,12.37
2018-02-17T14:38:49.754Z,12.73
2018-02-17T14:41:18.918Z,19.80
2018-02-17T14:43:47.392Z,13.10
2018-02-17T14:46:15.897Z,12.57
2018-02-17T14:48:44.419Z,11.93
2018-02-17T14:51:13.656Z,13.03
2018-02-17T14:53:42.386Z,13.77
2018-02-17T14:56:13.109Z,15.43
2018-02-17T14:58:42.540Z,14.20
2018-02-17T15:01:19.185Z,14.00
2018-02-17T15:03:48.350Z,20.13
2018-02-17T15:06:16.972Z,14.43
2018-02-17T15:08:45.406Z,21.43
2018-02-17T15:11:13.912Z,15.57
2018-02-17T15:13:42.439Z,12.43
2018-02-17T15:16:10.871Z,19.40
2018-02-17T15:18:39.269Z,11.40
2018-02-17T15:21:07.666Z,11.70
2018-02-17T15:23:36.098Z,13.15
2018-02-17T15:26:04.564Z,17.37
2018-02-17T15:28:38.790Z,14.68
2018-02-17T15:31:07.287Z,12.85
2018-02-17T15:33:35.947Z,17.30
2018-02-17T15:36:06.208Z,13.98
2018-02-17T15:38:37.008Z,12.68
2018-02-17T15:41:17.130Z,10.73
2018-02-17T15:43:46.436Z,15.88
2018-02-17T15:46:25.397Z,13.23
2018-02-17T15:48:54.757Z,21.58
2018-02-17T15:51:23.384Z,11.15
2018-02-17T15:53:52.580Z,14.18
2018-02-17T15:56:21.065Z,12.18
2018-02-17T15:58:49.552Z,14.45
2018-02-17T16:01:18.178Z,13.90
2018-02-17T16:03:46.756Z,17.45
2018-02-17T16:06:16.077Z,11.63
2018-02-17T16:08:44.791Z,13.70
2018-02-17T16:11:13.299Z,12.25
2018-02-17T16:13:41.758Z,13.95
2018-02-17T16:16:20.210Z,13.50
2018-02-17T16:18:49.940Z,11.85
2018-02-17T16:21:19.442Z,15.50
2018-02-17T16:23:47.900Z,13.73
2018-02-17T16:26:17.693Z,17.23
2018-02-17T16:28:46.113Z,11.57
2018-02-17T16:31:14.834Z,12.07
2018-02-17T16:33:43.405Z,13.62
2018-02-17T16:36:15.729Z,21.27
2018-02-17T16:38:44.219Z,18.62
2018-02-17T16:41:15.863Z,21.60
2018-02-17T16:43:56.672Z,15.73
2018-02-17T16:46:39.236Z,13.57
2018-02-17T16:49:19.237Z,18.55
2018-02-17T16:51:49.581Z,12.98
2018-02-17T16:54:18.176Z,18.83
2018-02-17T16:56:46.728Z,14.98
2018-02-17T16:59:15.409Z,24.85
2018-02-17T17:01:45.332Z,19.23
2018-02-17T17:04:14.637Z,42.92
2018-02-17T17:06:43.033Z,33.40
2018-02-17T17:09:11.467Z,41.45
2018-02-17T17:14:48.994Z,36.28
2018-02-17T17:17:17.403Z,57.78
2018-02-17T17:19:46.604Z,95.25
2018-02-17T17:22:15.768Z,58.10
2018-02-17T17:24:44.160Z,52.25
2018-02-17T17:27:12.577Z,28.65
2018-02-17T17:29:41.018Z,27.33
2018-02-17T17:32:10.308Z,28.00
2018-02-17T17:34:38.712Z,25.73
2018-02-17T17:37:07.126Z,27.08
2018-02-17T17:39:35.760Z,25.48
2018-02-17T17:42:04.236Z,40.42
2018-02-17T17:44:33.507Z,44.10
2018-02-17T17:47:02.725Z,63.13
2018-02-17T17:49:31.163Z,84.97
2018-02-17T17:51:59.897Z,29.08
2018-02-17T17:54:30.175Z,41.40
2018-02-17T17:57:01.014Z,35.08
2018-02-17T17:59:30.259Z,27.90
2018-02-17T18:01:58.845Z,27.33
2018-02-17T18:04:27.466Z,37.30
2018-02-17T18:06:56.669Z,35.95
2018-02-17T18:09:25.840Z,36.90
2018-02-17T18:11:54.321Z,41.47
2018-02-17T18:14:23.761Z,35.90
2018-02-17T18:16:53.139Z,39.70
2018-02-17T18:19:21.535Z,28.27
2018-02-17T18:21:49.975Z,31.52
2018-02-17T18:24:18.600Z,27.73
2018-02-17T18:26:47.863Z,28.80
2018-02-17T18:29:17.237Z,26.15
2018-02-17T18:31:45.625Z,31.15
2018-02-17T18:34:14.066Z,31.92
2018-02-17T18:36:42.529Z,40.83
2018-02-17T18:39:11.107Z,49.58
2018-02-17T18:41:39.563Z,48.92
2018-02-17T18:44:07.981Z,49.10
2018-02-17T18:46:38.298Z,53.75
2018-02-17T18:49:07.076Z,51.25
2018-02-17T18:51:35.522Z,50.30
2018-02-17T18:54:04.780Z,41.78
2018-02-17T18:56:33.240Z,49.42
2018-02-17T18:59:01.750Z,43.97
2018-02-17T19:01:31.098Z,42.38
2018-02-17T19:03:59.501Z,44.45
2018-02-17T19:06:27.914Z,41.90
2018-02-17T19:08:58.072Z,54.35
2018-02-17T19:11:27.291Z,44.78
2018-02-17T19:13:55.740Z,45.15
2018-02-17T19:16:24.997Z,70.53
2018-02-17T19:18:53.647Z,73.00
2018-02-17T19:21:22.846Z,68.00
2018-02-17T19:23:52.118Z,53.78
2018-02-17T19:26:20.591Z,50.17
2018-02-17T19:28:49.049Z,52.47
2018-02-17T19:31:17.502Z,50.97
2018-02-17T19:33:46.545Z,69.10
2018-02-17T19:36:15.097Z,75.60
2018-02-17T19:38:43.580Z,57.22
2018-02-17T19:41:11.979Z,45.90
2018-02-17T19:43:40.375Z,55.95
2018-02-17T19:46:09.723Z,51.03
2018-02-17T19:48:38.153Z,56.50
2018-02-17T19:51:06.945Z,58.30
2018-02-17T19:53:36.195Z,44.47
2018-02-17T19:56:07.012Z,68.00
2018-02-17T19:58:35.717Z,51.58
2018-02-17T20:01:04.865Z,87.82
2018-02-17T20:03:33.670Z,79.70
2018-02-17T20:06:02.097Z,58.55
2018-02-17T20:08:30.801Z,52.72
2018-02-17T20:10:59.223Z,54.15
2018-02-17T20:13:27.676Z,48.55
2018-02-17T20:15:56.139Z,47.45
2018-02-17T20:18:25.542Z,35.90
2018-02-17T20:20:54.035Z,46.47
2018-02-17T20:23:23.179Z,47.62
2018-02-17T20:25:51.644Z,38.95
2018-02-17T20:28:20.302Z,33.00
2018-02-17T20:30:48.776Z,40.17
2018-02-17T20:33:17.980Z,35.15
2018-02-17T20:35:47.168Z,31.08
2018-02-17T20:38:16.421Z,42.53
2018-02-17T20:40:45.008Z,45.78
2018-02-17T20:43:13.695Z,39.60
2018-02-17T20:45:42.157Z,43.85
2018-02-17T20:48:11.545Z,48.08
2018-02-17T20:50:40.959Z,52.47
2018-02-17T20:53:10.351Z,47.17
2018-02-17T20:55:39.892Z,60.50
2018-02-17T20:58:08.642Z,45.50
2018-02-17T21:00:37.427Z,53.58
2018-02-17T21:03:06.083Z,49.42
2018-02-17T21:05:34.548Z,62.47
2018-02-17T21:08:03.358Z,66.05
2018-02-17T21:10:31.771Z,68.90
2018-02-17T21:13:00.652Z,62.33
2018-02-17T21:15:29.891Z,74.03
2018-02-17T21:17:58.346Z,79.85
2018-02-17T21:20:26.892Z,81.12
2018-02-17T21:22:56.395Z,72.87
2018-02-17T21:25:24.942Z,79.82
2018-02-17T21:27:53.773Z,77.03
2018-02-17T21:30:23.186Z,73.70
2018-02-17T21:32:51.789Z,58.83
2018-02-17T21:35:20.542Z,51.35
2018-02-17T21:37:49.038Z,53.13
2018-02-17T21:40:17.608Z,56.85
2018-02-17T21:42:47.047Z,49.65
2018-02-17T21:45:15.614Z,44.78
2018-02-17T21:47:44.080Z,47.15
2018-02-17T21:50:13.509Z,51.40
2018-02-17T21:52:42.012Z,49.08
2018-02-17T21:55:10.568Z,53.92
2018-02-17T21:57:38.964Z,54.38
2018-02-17T22:00:07.425Z,53.63
2018-02-17T22:02:36.404Z,48.75
2018-02-17T22:05:04.806Z,60.30
2018-02-17T22:07:34.894Z,44.17
2018-02-17T22:10:04.740Z,43.00
2018-02-17T22:15:07.955Z,34.55
2018-02-17T22:17:37.346Z,45.53
2018-02-17T22:20:05.833Z,48.22
2018-02-17T22:22:34.248Z,46.95
2018-02-17T22:25:03.615Z,42.60
2018-02-17T22:27:32.083Z,45.72
2018-02-17T22:30:00.841Z,49.10
2018-02-17T22:32:29.693Z,38.92
2018-02-17T22:34:58.231Z,34.05
2018-02-17T22:37:26.860Z,32.35
2018-02-17T22:39:55.651Z,41.40
2018-02-17T22:42:24.101Z,32.45
2018-02-17T22:44:52.875Z,27.33
2018-02-17T22:47:21.423Z,29.55
2018-02-17T22:49:52.836Z,30.08
2018-02-17T22:52:21.269Z,27.62
2018-02-17T22:54:49.714Z,25.45
2018-02-17T22:57:18.911Z,27.75
2018-02-17T22:59:48.176Z,42.72
2018-02-17T23:02:17.403Z,41.75
2018-02-17T23:04:46.627Z,33.55
2018-02-17T23:07:18.337Z,34.13
2018-02-17T23:09:47.807Z,31.25
2018-02-17T23:12:16.203Z,34.45
2018-02-17T23:14:44.643Z,29.25
2018-02-17T23:17:13.823Z,31.90
2018-02-17T23:19:42.313Z,30.90
2018-02-17T23:22:10.817Z,24.12
2018-02-17T23:24:39.268Z,21.62
2018-02-17T23:27:07.703Z,26.25
2018-02-17T23:29:36.131Z,30.95
2018-02-17T23:32:04.601Z,23.25
2018-02-17T23:34:34.290Z,21.75
2018-02-17T23:37:03.169Z,21.85
2018-02-17T23:39:31.575Z,25.75
2018-02-17T23:42:00.097Z,20.90
2018-02-17T23:44:28.542Z,24.80
2018-02-17T23:46:56.961Z,23.10
2018-02-17T23:49:25.374Z,35.00
2018-02-17T23:51:54.529Z,27.77
2018-02-17T23:54:22.996Z,26.08
2018-02-17T23:56:51.590Z,24.52
2018-02-17T23:59:20.010Z,25.62
